Estación Meteorológica Peña el Pijo (Robertgarden) [ 08/20/17 13:40:14 CEST ]

Fecha Hora Presion(HPa) Temp (°C) Humedad % Rocio (°C) Viento ( m/s) Direccion Lluvia 1Hora(mm) Lluvia 24H(mm) LLuvia Total(mm)
2017-May-16 01:01:49 1018.900 12.3 62 5.2         1390.83
2017-May-16 02:01:42 1018.800 10.5 67 4.6         1390.83
2017-May-16 03:01:40 1018.000 9.1 71 4.1         1390.83
2017-May-16 04:01:40 1018.000 8.1 74 3.8         1390.83
2017-May-16 05:07:04 1017.700 7.4 76 3.4         1390.83
2017-May-16 06:01:43 1017.500 7.2 78 3.6         1390.83
2017-May-16 07:01:58 1017.600 7.4 79 4.0         1390.83
2017-May-16 08:02:05 1017.800 8.3 80 5.1         1390.83
2017-May-16 09:01:57 1017.800 11.6 78 7.9         1390.83
2017-May-16 10:01:44 1017.800 18.7 59 10.5         1390.83
2017-May-16 11:01:59 1017.600 23.8 40 9.4         1390.83
2017-May-16 12:01:58 1017.500 25.3 33 7.8 0.6 S     1390.83
2017-May-16 13:01:38 1017.100 24.8 30 6.1 3.8 SSW     1390.83
2017-May-16 14:01:58 1016.600 26.1 27 5.4         1390.83
2017-May-16 15:01:37 1016.300 26.1 26 4.9         1390.83
2017-May-16 16:01:44 1016.000 23.9 26 3.0         1390.83
2017-May-16 17:01:50 1015.600 25.0 29 5.7         1390.83
2017-May-16 18:01:37 1015.600 25.6 27 5.0 2.0 SSW     1390.83
2017-May-16 19:01:17 1015.200 23.5 30 4.9         1390.83
2017-May-16 20:01:32 1015.300 22.4 31 4.4         1390.83
2017-May-16 21:01:10 1015.700 19.1 35 3.2         1390.83
2017-May-16 22:01:44 1016.000 16.6 43 3.9         1390.83
2017-May-16 23:01:47 1016.400 13.4 51 3.5         1390.83

Temperatura Máxima:26°    Temperatura Mínima:
Presión Máxima:1018.900 Hpa    Presión Mínima:1015.200 Hpa


Volver